createdAt,value
2022-12-19T00:01:19.704Z,0.27
2022-12-19T00:03:48.940Z,0.25
2022-12-19T00:06:16.745Z,0.09
2022-12-19T00:08:45.774Z,0.13
2022-12-19T00:11:14.030Z,0.23
2022-12-19T00:13:41.454Z,0.20
2022-12-19T00:16:15.894Z,0.19
2022-12-19T00:18:46.747Z,-0.01
2022-12-19T00:21:16.914Z,0.12
2022-12-19T00:23:43.750Z,0.26
2022-12-19T00:26:16.544Z,0.19
2022-12-19T00:28:46.311Z,0.07
2022-12-19T00:31:15.675Z,0.15
2022-12-19T00:33:43.667Z,0.14
2022-12-19T00:36:22.522Z,0.13
2022-12-19T00:38:51.191Z,0.14
2022-12-19T00:41:22.609Z,0.15
2022-12-19T00:43:55.991Z,0.17
2022-12-19T00:46:22.864Z,0.20
2022-12-19T00:48:49.328Z,0.12
2022-12-19T00:51:23.300Z,0.21
2022-12-19T00:53:51.161Z,0.24
2022-12-19T00:56:20.948Z,0.17
2022-12-19T00:58:47.907Z,0.26
2022-12-19T01:01:20.695Z,0.13
2022-12-19T01:04:18.580Z,0.31
2022-12-19T01:06:34.738Z,0.29
2022-12-19T01:09:01.413Z,0.32
2022-12-19T01:11:46.712Z,0.24
2022-12-19T01:14:20.711Z,0.26
2022-12-19T01:16:48.915Z,0.40
2022-12-19T01:19:15.581Z,0.45
2022-12-19T01:21:42.276Z,0.49
2022-12-19T01:24:10.352Z,0.45
2022-12-19T01:26:36.785Z,0.52
2022-12-19T01:29:04.532Z,0.54
2022-12-19T01:31:31.086Z,0.54
2022-12-19T01:33:59.535Z,0.45
2022-12-19T01:36:26.085Z,0.54
2022-12-19T01:38:56.054Z,0.61
2022-12-19T01:41:22.457Z,0.57
2022-12-19T01:43:55.073Z,0.59
2022-12-19T01:46:40.204Z,0.56
2022-12-19T01:49:13.590Z,0.57
2022-12-19T01:51:44.825Z,0.62
2022-12-19T01:54:15.705Z,0.49
2022-12-19T01:56:48.610Z,0.67
2022-12-19T01:59:21.267Z,0.69
2022-12-19T02:01:51.597Z,0.73
2022-12-19T02:04:20.327Z,0.75
2022-12-19T02:06:48.270Z,0.68
2022-12-19T02:09:14.790Z,0.82
2022-12-19T02:11:41.323Z,0.86
2022-12-19T02:14:07.715Z,0.88
2022-12-19T02:16:58.706Z,0.96
2022-12-19T02:19:56.126Z,0.99
2022-12-19T02:22:58.350Z,1.04
2022-12-19T02:25:48.672Z,1.04
2022-12-19T02:28:34.664Z,1.06
2022-12-19T02:31:27.459Z,1.09
2022-12-19T02:34:27.470Z,1.09
2022-12-19T02:37:05.738Z,1.12
2022-12-19T02:39:41.676Z,1.13
2022-12-19T02:42:12.858Z,1.10
2022-12-19T02:44:46.451Z,1.12
2022-12-19T02:47:14.805Z,1.13
2022-12-19T02:49:41.269Z,1.12
2022-12-19T02:52:13.396Z,1.13
2022-12-19T02:54:43.523Z,1.12
2022-12-19T02:57:36.304Z,1.01
2022-12-19T03:00:13.912Z,1.07
2022-12-19T03:03:06.587Z,1.15
2022-12-19T03:05:59.967Z,0.91
2022-12-19T03:08:37.119Z,1.10
2022-12-19T03:11:14.689Z,0.98
2022-12-19T03:13:50.953Z,1.09
2022-12-19T03:16:17.362Z,1.15
2022-12-19T03:18:44.284Z,1.12
2022-12-19T03:21:13.594Z,1.16
2022-12-19T03:23:40.605Z,1.16
2022-12-19T03:26:12.331Z,1.08
2022-12-19T03:28:53.871Z,1.12
2022-12-19T03:31:24.560Z,1.15
2022-12-19T03:33:56.707Z,1.13
2022-12-19T03:36:30.657Z,0.98
2022-12-19T03:38:59.805Z,1.16
2022-12-19T03:41:45.795Z,1.09
2022-12-19T03:44:14.789Z,1.17
2022-12-19T03:46:46.749Z,1.19
2022-12-19T03:49:13.608Z,1.17
2022-12-19T03:51:56.392Z,1.18
2022-12-19T03:54:29.518Z,1.19
2022-12-19T03:56:56.033Z,1.26
2022-12-19T03:59:35.822Z,1.23
2022-12-19T04:02:04.344Z,1.23
2022-12-19T04:04:34.835Z,1.13
2022-12-19T04:07:03.972Z,1.08
2022-12-19T04:09:32.029Z,1.19
2022-12-19T04:12:05.387Z,1.23
2022-12-19T04:14:34.967Z,1.22
2022-12-19T04:17:12.590Z,1.10
2022-12-19T04:19:47.907Z,1.25
2022-12-19T04:22:23.562Z,1.18
2022-12-19T04:24:52.584Z,1.18
2022-12-19T04:27:20.575Z,1.23
2022-12-19T04:29:48.379Z,1.28
2022-12-19T04:32:15.123Z,1.15
2022-12-19T04:34:42.979Z,1.26
2022-12-19T04:37:11.188Z,1.30
2022-12-19T04:39:37.763Z,1.32
2022-12-19T04:42:04.405Z,1.32
2022-12-19T04:44:31.007Z,1.25
2022-12-19T04:46:57.425Z,1.38
2022-12-19T04:49:23.886Z,1.28
2022-12-19T04:51:50.862Z,1.36
2022-12-19T04:54:17.313Z,1.28
2022-12-19T04:56:43.742Z,1.44
2022-12-19T04:59:10.470Z,1.45
2022-12-19T05:01:37.065Z,1.49
2022-12-19T05:04:04.824Z,1.52
2022-12-19T05:06:31.444Z,1.54
2022-12-19T05:08:57.856Z,1.59
2022-12-19T05:11:24.288Z,1.60
2022-12-19T05:13:50.748Z,1.62
2022-12-19T05:16:17.462Z,1.66
2022-12-19T05:18:44.436Z,1.65
2022-12-19T05:21:11.250Z,1.62
2022-12-19T05:23:38.186Z,1.66
2022-12-19T05:26:05.598Z,1.68
2022-12-19T05:28:32.690Z,1.67
2022-12-19T05:31:13.555Z,1.70
2022-12-19T05:33:41.143Z,1.72
2022-12-19T05:36:08.569Z,1.73
2022-12-19T05:38:35.496Z,1.77
2022-12-19T05:41:15.524Z,1.82
2022-12-19T05:43:42.758Z,1.85
2022-12-19T05:46:09.326Z,1.91
2022-12-19T05:48:36.317Z,1.95
2022-12-19T05:51:03.058Z,1.94
2022-12-19T05:53:29.602Z,1.85
2022-12-19T05:56:10.284Z,2.08
2022-12-19T05:58:38.826Z,2.15
2022-12-19T06:01:20.389Z,2.21
2022-12-19T06:03:47.245Z,2.26
2022-12-19T06:06:15.955Z,2.30
2022-12-19T06:08:42.953Z,2.33
2022-12-19T06:11:11.152Z,2.39
2022-12-19T06:13:38.498Z,2.40
2022-12-19T06:16:12.812Z,2.47
2022-12-19T06:18:44.551Z,2.37
2022-12-19T06:21:29.631Z,2.56
2022-12-19T06:23:56.447Z,2.59
2022-12-19T06:26:23.461Z,2.46
2022-12-19T06:28:51.881Z,2.64
2022-12-19T06:31:20.200Z,2.66
2022-12-19T06:33:46.654Z,2.69
2022-12-19T06:36:20.221Z,2.70
2022-12-19T06:38:47.443Z,2.71
2022-12-19T06:41:33.912Z,2.64
2022-12-19T06:44:01.671Z,2.79
2022-12-19T06:46:28.409Z,2.81
2022-12-19T06:48:54.787Z,2.78
2022-12-19T06:51:21.613Z,2.84
2022-12-19T06:53:48.185Z,2.84
2022-12-19T06:56:16.040Z,2.66
2022-12-19T06:58:42.806Z,2.81
2022-12-19T07:01:19.900Z,2.96
2022-12-19T07:03:48.614Z,2.81
2022-12-19T07:06:15.516Z,2.95
2022-12-19T07:08:41.973Z,2.94
2022-12-19T07:11:08.391Z,2.96
2022-12-19T07:13:34.845Z,3.02
2022-12-19T07:16:04.470Z,3.01
2022-12-19T07:18:34.453Z,3.05
2022-12-19T07:21:01.781Z,2.99
2022-12-19T07:23:28.969Z,3.09
2022-12-19T07:25:55.513Z,3.10
2022-12-19T07:28:21.949Z,3.00
2022-12-19T07:30:48.376Z,3.10
2022-12-19T07:33:21.029Z,3.10
2022-12-19T07:35:48.213Z,3.15
2022-12-19T07:38:14.702Z,3.16
2022-12-19T07:40:41.224Z,3.19
2022-12-19T07:43:07.618Z,3.22
2022-12-19T07:45:37.027Z,3.24
2022-12-19T07:48:05.108Z,3.24
2022-12-19T07:50:31.976Z,3.26
2022-12-19T07:52:58.975Z,3.14
2022-12-19T07:55:26.345Z,3.28
2022-12-19T07:57:53.690Z,3.30
2022-12-19T08:00:20.466Z,3.16
2022-12-19T08:02:47.057Z,3.30
2022-12-19T08:05:13.550Z,3.30
2022-12-19T08:07:40.769Z,3.32
2022-12-19T08:10:08.173Z,3.33
2022-12-19T08:12:34.601Z,3.35
2022-12-19T08:15:01.025Z,3.36
2022-12-19T08:17:27.455Z,3.38
2022-12-19T08:19:53.924Z,3.38
2022-12-19T08:22:20.307Z,3.38
2022-12-19T08:24:46.815Z,3.37
2022-12-19T08:27:16.784Z,3.41
2022-12-19T08:29:43.184Z,3.44
2022-12-19T08:32:09.601Z,3.44
2022-12-19T08:34:36.083Z,3.40
2022-12-19T08:37:02.485Z,3.45
2022-12-19T08:39:28.859Z,3.48
2022-12-19T08:41:55.304Z,3.53
2022-12-19T08:44:30.595Z,3.59
2022-12-19T08:46:57.006Z,3.51
2022-12-19T08:49:23.515Z,3.62
2022-12-19T08:51:49.970Z,3.66
2022-12-19T08:54:16.464Z,3.69
2022-12-19T08:56:46.379Z,3.72
2022-12-19T08:59:20.763Z,3.73
2022-12-19T09:01:57.279Z,3.58
2022-12-19T09:05:59.779Z,3.77
2022-12-19T09:07:10.424Z,3.83
2022-12-19T09:09:36.803Z,3.85
2022-12-19T09:12:03.362Z,3.83
2022-12-19T09:14:33.975Z,3.88
2022-12-19T09:17:00.997Z,3.88
2022-12-19T09:19:30.456Z,3.90
2022-12-19T09:21:57.018Z,3.82
2022-12-19T09:24:23.478Z,4.02
2022-12-19T09:26:49.882Z,4.04
2022-12-19T09:29:19.806Z,4.06
2022-12-19T09:31:51.286Z,4.08
2022-12-19T09:34:37.986Z,4.15
2022-12-19T09:37:10.485Z,4.20
2022-12-19T09:39:47.451Z,4.11
2022-12-19T09:42:42.925Z,4.28
2022-12-19T09:45:31.417Z,4.32
2022-12-19T09:48:00.615Z,4.35
2022-12-19T09:50:36.205Z,4.38
2022-12-19T09:53:10.352Z,4.24
2022-12-19T09:55:41.197Z,4.41
2022-12-19T09:58:30.696Z,4.46
2022-12-19T10:01:02.105Z,4.47
2022-12-19T10:03:45.241Z,4.50
2022-12-19T10:07:16.201Z,4.52
2022-12-19T10:12:20.712Z,4.56
2022-12-19T10:12:47.834Z,4.56
2022-12-19T10:15:29.585Z,4.60
2022-12-19T10:17:58.868Z,4.60
2022-12-19T10:21:09.538Z,4.68
2022-12-19T10:23:58.889Z,4.66
2022-12-19T10:26:54.202Z,4.71
2022-12-19T10:29:23.293Z,4.70
2022-12-19T10:32:06.635Z,4.61
2022-12-19T10:34:39.829Z,4.77
2022-12-19T10:37:43.850Z,4.79
2022-12-19T10:40:27.824Z,4.76
2022-12-19T10:43:30.687Z,4.91
2022-12-19T10:46:10.892Z,4.92
2022-12-19T10:48:37.340Z,4.93
2022-12-19T10:51:06.899Z,4.99
2022-12-19T10:53:33.619Z,5.03
2022-12-19T10:56:02.743Z,5.06
2022-12-19T10:58:37.467Z,4.95
2022-12-19T11:01:24.902Z,5.13
2022-12-19T11:04:11.700Z,5.19
2022-12-19T11:06:38.110Z,5.19
2022-12-19T11:09:21.365Z,5.24
2022-12-19T11:15:49.500Z,5.18
2022-12-19T11:18:34.029Z,5.26
2022-12-19T11:29:15.318Z,5.21
2022-12-19T11:29:26.119Z,5.34
2022-12-19T11:29:39.897Z,5.32
2022-12-19T11:30:43.172Z,5.41
2022-12-19T11:32:44.300Z,5.35
2022-12-19T11:35:36.797Z,5.53
2022-12-19T11:38:06.656Z,5.51
2022-12-19T11:40:46.545Z,5.55
2022-12-19T11:43:46.119Z,5.61
2022-12-19T11:46:25.329Z,5.69
2022-12-19T11:49:08.892Z,5.73
2022-12-19T11:52:03.002Z,5.76
2022-12-19T11:55:02.047Z,5.73
2022-12-19T11:57:28.654Z,5.74
2022-12-19T11:59:59.892Z,5.90
2022-12-19T12:02:49.373Z,5.96
2022-12-19T12:05:30.557Z,6.03
2022-12-19T12:09:40.235Z,6.02
2022-12-19T12:18:43.247Z,6.14
2022-12-19T12:25:01.467Z,6.21
2022-12-19T12:30:57.192Z,6.29
2022-12-19T12:31:09.622Z,6.35
2022-12-19T12:31:42.624Z,6.54
2022-12-19T12:31:43.408Z,6.53
2022-12-19T12:31:55.330Z,6.42
2022-12-19T12:35:51.344Z,6.61
2022-12-19T12:37:51.145Z,6.62
2022-12-19T12:39:00.949Z,6.66
2022-12-19T12:42:03.912Z,6.72
2022-12-19T12:44:44.833Z,6.70
2022-12-19T12:47:21.708Z,6.76
2022-12-19T12:50:04.119Z,6.82
2022-12-19T12:52:42.684Z,6.85
2022-12-19T12:55:31.685Z,6.80
2022-12-19T12:57:59.146Z,6.91
2022-12-19T13:00:27.159Z,6.89
2022-12-19T13:03:18.861Z,6.96
2022-12-19T13:06:03.858Z,7.00
2022-12-19T13:08:48.046Z,6.96
2022-12-19T13:11:38.961Z,7.05
2022-12-19T13:14:26.552Z,7.08
2022-12-19T13:16:54.034Z,7.10
2022-12-19T13:19:33.173Z,7.15
2022-12-19T13:22:07.290Z,7.14
2022-12-19T13:24:42.851Z,7.20
2022-12-19T13:27:18.405Z,7.22
2022-12-19T13:30:00.092Z,7.25
2022-12-19T13:32:33.566Z,7.28
2022-12-19T13:35:20.585Z,7.21
2022-12-19T13:39:59.971Z,7.33
2022-12-19T13:41:25.668Z,7.19
2022-12-19T13:43:59.350Z,7.39
2022-12-19T13:46:42.501Z,7.45
2022-12-19T13:49:19.817Z,7.39
2022-12-19T13:51:50.255Z,7.47
2022-12-19T13:54:41.522Z,7.46
2022-12-19T13:57:30.063Z,7.55
2022-12-19T14:00:03.880Z,7.49
2022-12-19T14:02:44.384Z,7.61
2022-12-19T14:06:17.158Z,7.65
2022-12-19T14:08:28.337Z,7.65
2022-12-19T14:11:37.602Z,7.67
2022-12-19T14:14:16.518Z,7.71
2022-12-19T14:16:46.622Z,7.64
2022-12-19T14:19:24.982Z,7.68
2022-12-19T14:22:09.532Z,7.74
2022-12-19T14:24:39.591Z,7.77
2022-12-19T14:28:19.380Z,7.56
2022-12-19T14:30:27.679Z,7.80
2022-12-19T14:33:39.227Z,7.81
2022-12-19T14:36:06.712Z,7.80
2022-12-19T14:39:20.362Z,7.85
2022-12-19T14:41:48.101Z,7.83
2022-12-19T14:53:08.677Z,7.78
2022-12-19T14:54:07.010Z,7.83
2022-12-19T14:54:10.121Z,7.82
2022-12-19T14:54:20.955Z,7.88
2022-12-19T14:56:13.643Z,7.93
2022-12-19T14:58:53.924Z,7.92
2022-12-19T15:01:30.808Z,7.96
2022-12-19T15:04:47.892Z,8.00
2022-12-19T15:07:06.620Z,8.01
2022-12-19T15:10:59.327Z,8.05
2022-12-19T15:14:52.404Z,8.05
2022-12-19T15:16:24.452Z,8.07
2022-12-19T15:18:54.147Z,8.07
2022-12-19T15:21:20.598Z,8.07
2022-12-19T15:23:47.003Z,8.03
2022-12-19T15:26:34.850Z,8.20
2022-12-19T15:29:01.946Z,8.19
2022-12-19T15:31:42.732Z,8.23
2022-12-19T15:34:40.086Z,8.03
2022-12-19T15:37:13.104Z,8.22
2022-12-19T15:39:40.466Z,8.25
2022-12-19T15:42:17.894Z,8.29
2022-12-19T15:44:46.203Z,8.28
2022-12-19T15:47:18.202Z,8.30
2022-12-19T15:49:44.765Z,8.15
2022-12-19T15:52:17.185Z,8.34
2022-12-19T15:54:48.689Z,8.34
2022-12-19T15:57:35.196Z,8.39
2022-12-19T16:00:07.484Z,8.39
2022-12-19T16:05:22.989Z,8.37
2022-12-19T16:07:49.811Z,8.33
2022-12-19T16:10:17.502Z,8.46
2022-12-19T16:12:48.258Z,8.46
2022-12-19T16:15:24.825Z,8.51
2022-12-19T16:17:51.597Z,8.45
2022-12-19T16:20:21.778Z,8.52
2022-12-19T16:22:48.495Z,8.50
2022-12-19T16:25:16.068Z,8.53
2022-12-19T16:27:43.829Z,8.59
2022-12-19T16:30:20.218Z,8.61
2022-12-19T16:32:47.923Z,8.58
2022-12-19T16:35:34.410Z,8.59
2022-12-19T16:38:03.954Z,8.59
2022-12-19T16:40:30.508Z,8.57
2022-12-19T16:43:05.106Z,8.68
2022-12-19T16:45:33.916Z,8.71
2022-12-19T16:48:00.488Z,8.70
2022-12-19T16:50:29.565Z,8.69
2022-12-19T16:52:56.379Z,8.73
2022-12-19T16:55:25.865Z,8.70
2022-12-19T16:57:55.405Z,8.65
2022-12-19T17:00:23.365Z,8.77
2022-12-19T17:02:51.856Z,8.76
2022-12-19T17:05:29.401Z,8.76
2022-12-19T17:07:56.561Z,8.77
2022-12-19T17:10:30.859Z,8.82
2022-12-19T17:12:59.668Z,8.79
2022-12-19T17:15:32.193Z,8.73
2022-12-19T17:18:01.303Z,8.73
2022-12-19T17:20:32.200Z,8.74
2022-12-19T17:22:58.666Z,8.77
2022-12-19T17:25:27.108Z,8.76
2022-12-19T17:27:55.340Z,8.70
2022-12-19T17:30:22.008Z,8.75
2022-12-19T17:32:52.816Z,8.58
2022-12-19T17:35:27.863Z,8.77
2022-12-19T17:37:56.533Z,8.77
2022-12-19T17:40:26.452Z,8.75
2022-12-19T17:42:53.477Z,8.73
2022-12-19T17:45:21.606Z,8.76
2022-12-19T17:47:49.105Z,8.76
2022-12-19T17:50:29.973Z,8.68
2022-12-19T17:52:56.975Z,8.72
2022-12-19T17:55:28.333Z,8.80
2022-12-19T17:57:55.414Z,8.82
2022-12-19T18:00:30.319Z,8.86
2022-12-19T18:03:01.645Z,8.85
2022-12-19T18:05:31.745Z,8.82
2022-12-19T18:07:58.230Z,8.84
2022-12-19T18:10:27.738Z,8.86
2022-12-19T18:12:54.534Z,8.82
2022-12-19T18:15:22.500Z,8.79
2022-12-19T18:17:50.336Z,8.80
2022-12-19T18:20:32.772Z,8.82
2022-12-19T18:23:03.139Z,8.82
2022-12-19T18:25:31.153Z,8.91
2022-12-19T18:27:58.437Z,8.80
2022-12-19T18:30:25.668Z,8.84
2022-12-19T18:33:01.018Z,8.82
2022-12-19T18:35:40.027Z,8.72
2022-12-19T18:38:15.542Z,8.81
2022-12-19T18:40:42.274Z,8.71
2022-12-19T18:43:14.501Z,8.80
2022-12-19T18:45:50.566Z,8.82
2022-12-19T18:48:26.809Z,8.78
2022-12-19T18:50:53.849Z,8.80
2022-12-19T18:53:23.219Z,8.82
2022-12-19T18:55:51.544Z,8.86
2022-12-19T18:58:19.054Z,8.87
2022-12-19T19:00:49.565Z,8.72
2022-12-19T19:03:21.880Z,8.89
2022-12-19T19:05:48.794Z,8.84
2022-12-19T19:08:26.978Z,8.93
2022-12-19T19:10:55.541Z,8.94
2022-12-19T19:13:24.144Z,8.89
2022-12-19T19:15:58.987Z,8.89
2022-12-19T19:18:36.919Z,8.90
2022-12-19T19:21:05.090Z,8.89
2022-12-19T19:23:38.078Z,8.93
2022-12-19T19:26:05.748Z,8.90
2022-12-19T19:28:32.216Z,8.71
2022-12-19T19:31:00.591Z,8.88
2022-12-19T19:33:32.582Z,8.85
2022-12-19T19:36:09.424Z,8.90
2022-12-19T19:38:38.522Z,8.86
2022-12-19T19:41:05.149Z,8.83
2022-12-19T19:43:35.607Z,8.83
2022-12-19T19:46:02.653Z,8.81
2022-12-19T19:48:29.292Z,8.80
2022-12-19T19:50:55.790Z,8.83
2022-12-19T19:53:22.263Z,8.82
2022-12-19T19:55:56.686Z,8.86
2022-12-19T19:58:23.600Z,8.64
2022-12-19T20:00:50.272Z,8.82
2022-12-19T20:03:22.246Z,8.80
2022-12-19T20:05:49.959Z,8.82
2022-12-19T20:08:16.777Z,8.80
2022-12-19T20:10:43.157Z,8.85
2022-12-19T20:13:11.262Z,8.83
2022-12-19T20:15:37.851Z,8.80
2022-12-19T20:18:04.341Z,8.76
2022-12-19T20:20:33.105Z,8.81
2022-12-19T20:22:59.644Z,8.78
2022-12-19T20:25:26.075Z,8.78
2022-12-19T20:27:52.476Z,8.80
2022-12-19T20:30:19.145Z,8.79
2022-12-19T20:32:45.785Z,8.81
2022-12-19T20:35:14.826Z,8.61
2022-12-19T20:37:41.967Z,8.75
2022-12-19T20:40:09.315Z,8.72
2022-12-19T20:42:35.773Z,8.73
2022-12-19T20:45:02.277Z,8.68
2022-12-19T20:47:28.684Z,8.67
2022-12-19T20:49:55.102Z,8.71
2022-12-19T20:52:21.557Z,8.76
2022-12-19T20:54:47.990Z,8.78
2022-12-19T20:57:14.537Z,8.78
2022-12-19T20:59:40.923Z,8.79
2022-12-19T21:02:07.475Z,8.70
2022-12-19T21:04:34.210Z,8.63
2022-12-19T21:07:00.906Z,8.79
2022-12-19T21:09:27.350Z,8.79
2022-12-19T21:11:53.895Z,8.81
2022-12-19T21:14:20.337Z,8.80
2022-12-19T21:16:46.823Z,8.78
2022-12-19T21:19:13.274Z,8.64
2022-12-19T21:21:39.710Z,8.77
2022-12-19T21:24:06.304Z,8.75
2022-12-19T21:26:32.833Z,8.78
2022-12-19T21:28:59.546Z,8.76
2022-12-19T21:31:28.600Z,8.49
2022-12-19T21:34:01.258Z,8.67
2022-12-19T21:36:28.827Z,8.68
2022-12-19T21:38:57.537Z,8.68
2022-12-19T21:41:25.371Z,8.68
2022-12-19T21:43:54.265Z,8.68
2022-12-19T21:46:23.927Z,8.69
2022-12-19T21:48:52.869Z,8.67
2022-12-19T21:51:21.312Z,8.49
2022-12-19T21:53:52.414Z,8.67
2022-12-19T21:56:34.354Z,8.66
2022-12-19T21:59:04.404Z,8.68
2022-12-19T22:01:31.288Z,8.67
2022-12-19T22:03:59.901Z,8.62
2022-12-19T22:06:29.784Z,8.65
2022-12-19T22:08:56.665Z,8.61
2022-12-19T22:11:23.829Z,8.63
2022-12-19T22:13:51.336Z,8.64
2022-12-19T22:16:18.261Z,8.60
2022-12-19T22:18:45.150Z,8.60
2022-12-19T22:21:14.004Z,8.66
2022-12-19T22:23:41.016Z,8.67
2022-12-19T22:26:11.701Z,8.68
2022-12-19T22:28:40.681Z,8.66
2022-12-19T22:31:34.328Z,8.75
2022-12-19T22:34:16.715Z,8.76
2022-12-19T22:36:43.546Z,8.77
2022-12-19T22:39:13.771Z,8.82
2022-12-19T22:41:40.336Z,8.92
2022-12-19T22:44:07.773Z,8.82
2022-12-19T22:46:36.352Z,8.85
2022-12-19T22:49:05.099Z,8.82
2022-12-19T22:51:34.065Z,8.71
2022-12-19T22:54:01.389Z,8.84
2022-12-19T22:56:30.126Z,8.90
2022-12-19T22:59:00.223Z,8.94
2022-12-19T23:01:32.193Z,8.87
2022-12-19T23:04:03.153Z,8.82
2022-12-19T23:06:31.703Z,8.78
2022-12-19T23:08:58.496Z,8.78
2022-12-19T23:11:29.857Z,8.84
2022-12-19T23:13:56.595Z,8.84
2022-12-19T23:16:23.311Z,8.90
2022-12-19T23:18:49.795Z,8.89
2022-12-19T23:21:19.196Z,8.92
2022-12-19T23:23:47.052Z,8.96
2022-12-19T23:26:16.824Z,8.87
2022-12-19T23:28:49.342Z,8.97
2022-12-19T23:31:16.030Z,8.93
2022-12-19T23:33:42.444Z,8.85
2022-12-19T23:36:10.207Z,8.96
2022-12-19T23:38:36.883Z,8.96
2022-12-19T23:41:05.734Z,9.02
2022-12-19T23:43:33.527Z,9.05
2022-12-19T23:46:00.227Z,9.06
2022-12-19T23:48:28.371Z,9.03
2022-12-19T23:51:02.935Z,8.85
2022-12-19T23:53:30.154Z,9.05
2022-12-19T23:55:56.684Z,9.02
2022-12-19T23:58:24.938Z,9.05
